createdAt,value
2022-09-18T00:01:32.175Z,12.90
2022-09-18T00:04:03.305Z,12.90
2022-09-18T00:06:34.219Z,12.90
2022-09-18T00:09:05.507Z,12.90
2022-09-18T00:11:36.386Z,12.90
2022-09-18T00:14:06.308Z,12.90
2022-09-18T00:16:34.726Z,12.90
2022-09-18T00:19:04.476Z,12.90
2022-09-18T00:21:32.899Z,13.00
2022-09-18T00:24:02.503Z,12.90
2022-09-18T00:26:31.090Z,13.00
2022-09-18T00:29:00.390Z,13.00
2022-09-18T00:31:30.582Z,13.00
2022-09-18T00:33:59.441Z,13.10
2022-09-18T00:36:29.808Z,13.00
2022-09-18T00:38:59.989Z,13.10
2022-09-18T00:41:30.722Z,13.10
2022-09-18T00:44:40.460Z,13.10
2022-09-18T00:47:19.192Z,13.10
2022-09-18T00:49:52.176Z,13.10
2022-09-18T00:52:25.317Z,13.10
2022-09-18T00:54:57.262Z,13.10
2022-09-18T00:57:30.430Z,13.10
2022-09-18T01:00:01.288Z,13.10
2022-09-18T01:02:29.323Z,13.00
2022-09-18T01:04:57.491Z,13.00
2022-09-18T01:07:36.747Z,13.00
2022-09-18T01:10:16.891Z,13.00
2022-09-18T01:12:53.354Z,13.00
2022-09-18T01:15:29.211Z,13.00
2022-09-18T01:18:06.947Z,13.10
2022-09-18T01:20:53.550Z,13.00
2022-09-18T01:23:47.590Z,13.00
2022-09-18T01:26:32.285Z,13.00
2022-09-18T01:29:09.914Z,13.00
2022-09-18T01:31:46.088Z,13.00
2022-09-18T01:34:19.509Z,13.00
2022-09-18T01:36:52.294Z,12.90
2022-09-18T01:39:24.881Z,12.90
2022-09-18T01:41:54.695Z,12.90
2022-09-18T01:44:28.754Z,13.00
2022-09-18T01:46:58.599Z,12.90
2022-09-18T01:49:30.569Z,12.90
2022-09-18T01:52:03.683Z,13.00
2022-09-18T01:54:36.722Z,13.00
2022-09-18T01:57:09.616Z,13.10
2022-09-18T01:59:43.476Z,13.00
2022-09-18T02:02:16.916Z,13.10
2022-09-18T02:04:48.673Z,13.00
2022-09-18T02:07:21.713Z,13.00
2022-09-18T02:09:49.879Z,13.00
2022-09-18T02:12:24.652Z,13.00
2022-09-18T02:14:57.051Z,13.00
2022-09-18T02:17:30.329Z,13.00
2022-09-18T02:20:02.856Z,13.10
2022-09-18T02:22:35.180Z,13.10
2022-09-18T02:25:07.232Z,13.10
2022-09-18T02:27:36.932Z,13.10
2022-09-18T02:30:08.955Z,13.10
2022-09-18T02:32:37.534Z,13.10
2022-09-18T02:35:06.387Z,13.00
2022-09-18T02:37:42.502Z,13.00
2022-09-18T02:40:26.591Z,13.00
2022-09-18T02:43:10.679Z,13.00
2022-09-18T02:45:49.759Z,13.00
2022-09-18T02:48:32.762Z,13.10
2022-09-18T02:51:08.899Z,13.10
2022-09-18T02:53:44.644Z,13.10
2022-09-18T02:56:23.106Z,13.10
2022-09-18T02:58:55.662Z,13.20
2022-09-18T03:01:27.745Z,13.20
2022-09-18T03:03:55.606Z,13.10
2022-09-18T03:06:23.543Z,13.10
2022-09-18T03:08:51.632Z,13.10
2022-09-18T03:11:19.735Z,13.20
2022-09-18T03:13:47.889Z,13.10
2022-09-18T03:16:15.813Z,13.10
2022-09-18T03:18:45.185Z,13.10
2022-09-18T03:21:13.272Z,13.10
2022-09-18T03:23:44.861Z,13.30
2022-09-18T03:26:13.597Z,13.10
2022-09-18T03:28:41.475Z,13.10
2022-09-18T03:31:09.513Z,13.10
2022-09-18T03:33:37.851Z,13.00
2022-09-18T03:36:07.661Z,13.30
2022-09-18T03:38:37.731Z,13.20
2022-09-18T03:41:07.024Z,13.10
2022-09-18T03:43:35.770Z,13.10
2022-09-18T03:46:03.646Z,13.10
2022-09-18T03:48:31.607Z,13.10
2022-09-18T03:50:59.393Z,13.10
2022-09-18T03:53:28.534Z,13.10
2022-09-18T03:55:56.760Z,13.10
2022-09-18T03:58:24.592Z,13.10
2022-09-18T04:00:52.379Z,13.10
2022-09-18T04:03:20.665Z,13.10
2022-09-18T04:05:49.704Z,13.10
2022-09-18T04:08:17.605Z,13.00
2022-09-18T04:10:48.293Z,13.10
2022-09-18T04:13:16.591Z,13.10
2022-09-18T04:15:45.257Z,13.00
2022-09-18T04:18:13.216Z,13.00
2022-09-18T04:20:41.339Z,13.00
2022-09-18T04:23:11.459Z,13.10
2022-09-18T04:25:39.619Z,13.20
2022-09-18T04:28:08.906Z,13.10
2022-09-18T04:30:36.768Z,13.10
2022-09-18T04:33:04.802Z,13.10
2022-09-18T04:35:32.677Z,13.10
2022-09-18T04:38:00.570Z,13.10
2022-09-18T04:40:28.643Z,13.10
2022-09-18T04:42:56.790Z,13.20
2022-09-18T04:45:25.986Z,13.10
2022-09-18T04:47:53.926Z,13.10
2022-09-18T04:50:22.021Z,13.10
2022-09-18T04:52:49.903Z,13.10
2022-09-18T04:55:18.613Z,13.20
2022-09-18T04:57:48.331Z,13.10
2022-09-18T05:00:19.519Z,13.10
2022-09-18T05:02:48.901Z,13.10
2022-09-18T05:05:17.018Z,13.10
2022-09-18T05:07:44.883Z,13.20
2022-09-18T05:10:12.699Z,13.20
2022-09-18T05:12:41.220Z,13.10
2022-09-18T05:15:09.904Z,13.10
2022-09-18T05:17:39.984Z,13.00
2022-09-18T05:20:10.280Z,13.00
2022-09-18T05:22:38.524Z,13.00
2022-09-18T05:25:07.034Z,12.90
2022-09-18T05:27:34.870Z,12.90
2022-09-18T05:30:02.687Z,12.90
2022-09-18T05:32:30.828Z,12.90
2022-09-18T05:34:58.896Z,12.90
2022-09-18T05:37:28.127Z,12.90
2022-09-18T05:39:56.628Z,12.90
2022-09-18T05:42:24.476Z,12.90
2022-09-18T05:44:52.291Z,12.90
2022-09-18T05:47:20.643Z,12.90
2022-09-18T05:49:48.632Z,12.90
2022-09-18T05:52:16.451Z,13.00
2022-09-18T05:54:45.864Z,13.00
2022-09-18T05:57:13.767Z,13.00
2022-09-18T05:59:41.660Z,13.00
2022-09-18T06:02:11.194Z,13.00
2022-09-18T06:04:40.090Z,13.00
2022-09-18T06:07:08.101Z,13.20
2022-09-18T06:09:36.016Z,13.00
2022-09-18T06:12:05.733Z,13.10
2022-09-18T06:14:33.642Z,13.00
2022-09-18T06:17:01.683Z,13.10
2022-09-18T06:19:30.175Z,13.10
2022-09-18T06:21:58.126Z,13.10
2022-09-18T06:24:26.084Z,13.20
2022-09-18T06:26:53.891Z,13.20
2022-09-18T06:29:23.326Z,13.20
2022-09-18T06:31:51.840Z,13.20
2022-09-18T06:34:19.812Z,13.20
2022-09-18T06:36:47.833Z,13.30
2022-09-18T06:39:16.471Z,13.40
2022-09-18T06:41:44.335Z,13.40
2022-09-18T06:44:12.127Z,13.50
2022-09-18T06:46:41.758Z,13.50
2022-09-18T06:49:09.827Z,13.50
2022-09-18T06:51:37.766Z,13.50
2022-09-18T06:54:05.970Z,13.60
2022-09-18T06:56:33.860Z,13.60
2022-09-18T06:59:01.710Z,13.70
2022-09-18T07:01:29.756Z,13.70
2022-09-18T07:03:59.813Z,13.70
2022-09-18T07:06:28.073Z,14.00
2022-09-18T07:08:56.799Z,13.80
2022-09-18T07:11:24.741Z,13.90
2022-09-18T07:13:53.246Z,13.90
2022-09-18T07:16:21.586Z,14.00
2022-09-18T07:18:49.858Z,14.00
2022-09-18T07:21:19.054Z,14.10
2022-09-18T07:23:47.388Z,14.10
2022-09-18T07:26:15.290Z,14.10
2022-09-18T07:28:43.216Z,14.20
2022-09-18T07:31:11.382Z,14.20
2022-09-18T07:33:40.432Z,14.30
2022-09-18T07:36:08.400Z,14.30
2022-09-18T07:38:37.938Z,14.40
2022-09-18T07:41:06.312Z,14.50
2022-09-18T07:43:34.644Z,14.50
2022-09-18T07:46:06.052Z,14.60
2022-09-18T07:48:33.974Z,14.60
2022-09-18T07:51:03.183Z,14.60
2022-09-18T07:53:31.313Z,14.60
2022-09-18T07:56:00.640Z,14.50
2022-09-18T07:58:28.600Z,14.50
2022-09-18T08:00:57.209Z,14.50
2022-09-18T08:03:25.557Z,14.50
2022-09-18T08:05:54.210Z,14.50
2022-09-18T08:08:22.283Z,14.50
2022-09-18T08:10:50.680Z,14.50
2022-09-18T08:13:19.928Z,14.40
2022-09-18T08:15:48.006Z,14.40
2022-09-18T08:18:17.094Z,14.40
2022-09-18T08:20:44.971Z,14.40
2022-09-18T08:23:13.096Z,14.40
2022-09-18T08:25:42.114Z,14.40
2022-09-18T08:28:11.181Z,14.40
2022-09-18T08:30:41.214Z,14.40
2022-09-18T08:33:10.133Z,14.40
2022-09-18T08:35:38.310Z,14.40
2022-09-18T08:38:06.787Z,14.50
2022-09-18T08:41:16.255Z,14.60
2022-09-18T08:43:59.702Z,14.60
2022-09-18T08:46:35.370Z,14.60
2022-09-18T08:49:15.278Z,14.60
2022-09-18T08:51:51.613Z,14.60
2022-09-18T08:54:27.850Z,14.60
2022-09-18T08:56:58.241Z,14.70
2022-09-18T08:59:35.364Z,14.70
2022-09-18T09:02:25.247Z,14.80
2022-09-18T09:04:58.137Z,14.90
2022-09-18T09:07:44.133Z,14.90
2022-09-18T09:10:30.560Z,15.00
2022-09-18T09:13:06.704Z,15.10
2022-09-18T09:15:38.625Z,15.10
2022-09-18T09:18:17.487Z,15.20
2022-09-18T09:20:52.963Z,15.30
2022-09-18T09:23:34.453Z,15.30
2022-09-18T09:26:07.671Z,15.40
2022-09-18T09:28:45.094Z,15.40
2022-09-18T09:31:16.299Z,15.30
2022-09-18T09:33:54.105Z,15.30
2022-09-18T09:36:27.073Z,15.00
2022-09-18T09:38:59.774Z,14.80
2022-09-18T09:41:33.946Z,14.60
2022-09-18T09:44:14.011Z,14.40
2022-09-18T09:46:51.826Z,14.20
2022-09-18T09:49:25.427Z,14.20
2022-09-18T09:52:02.117Z,14.10
2022-09-18T09:54:32.918Z,14.20
2022-09-18T09:57:09.000Z,14.30
2022-09-18T09:59:46.666Z,14.40
2022-09-18T10:02:38.751Z,14.40
2022-09-18T10:05:21.046Z,14.50
2022-09-18T10:07:54.935Z,14.80
2022-09-18T10:10:30.750Z,14.70
2022-09-18T10:13:04.842Z,14.70
2022-09-18T10:15:37.511Z,14.70
2022-09-18T10:18:08.739Z,14.80
2022-09-18T10:20:39.171Z,14.70
2022-09-18T10:23:12.943Z,14.70
2022-09-18T10:25:45.329Z,14.50
2022-09-18T10:28:14.911Z,14.50
2022-09-18T10:31:01.153Z,14.50
2022-09-18T10:33:37.045Z,14.50
2022-09-18T10:36:22.851Z,14.50
2022-09-18T10:38:51.839Z,14.50
2022-09-18T10:41:39.238Z,14.50
2022-09-18T10:44:29.240Z,14.50
2022-09-18T10:47:01.569Z,14.50
2022-09-18T10:49:33.634Z,14.50
2022-09-18T10:52:27.062Z,14.60
2022-09-18T10:55:08.993Z,14.50
2022-09-18T10:57:39.078Z,14.50
2022-09-18T11:00:35.060Z,14.60
2022-09-18T11:03:16.444Z,14.50
2022-09-18T11:05:53.179Z,14.50
2022-09-18T11:08:25.527Z,14.50
2022-09-18T11:11:00.405Z,14.50
2022-09-18T11:13:30.699Z,14.60
2022-09-18T11:16:00.738Z,14.60
2022-09-18T11:18:30.107Z,14.60
2022-09-18T11:21:02.047Z,14.40
2022-09-18T11:23:32.639Z,14.50
2022-09-18T11:26:21.097Z,14.50
2022-09-18T11:29:00.841Z,14.60
2022-09-18T11:31:40.569Z,14.70
2022-09-18T11:34:21.039Z,14.70
2022-09-18T11:36:52.135Z,14.70
2022-09-18T11:39:27.427Z,14.70
2022-09-18T11:41:56.656Z,14.80
2022-09-18T11:44:28.228Z,14.80
2022-09-18T11:47:25.426Z,14.80
2022-09-18T11:49:59.495Z,14.80
2022-09-18T11:52:31.747Z,14.90
2022-09-18T11:55:07.926Z,14.90
2022-09-18T11:57:40.180Z,14.90
2022-09-18T12:00:14.128Z,14.90
2022-09-18T12:02:48.875Z,14.90
2022-09-18T12:05:24.942Z,14.90
2022-09-18T12:08:00.659Z,15.00
2022-09-18T12:10:44.599Z,15.00
2022-09-18T12:13:28.750Z,15.00
2022-09-18T12:16:04.090Z,15.00
2022-09-18T12:18:41.522Z,15.00
2022-09-18T12:21:14.824Z,15.00
2022-09-18T12:23:42.979Z,15.00
2022-09-18T12:26:18.621Z,15.00
2022-09-18T12:28:59.610Z,15.10
2022-09-18T12:31:34.692Z,15.10
2022-09-18T12:34:09.147Z,15.10
2022-09-18T12:36:57.384Z,15.10
2022-09-18T12:39:46.751Z,15.10
2022-09-18T12:42:24.351Z,15.10
2022-09-18T12:45:22.464Z,15.10
2022-09-18T12:48:10.714Z,15.10
2022-09-18T12:50:49.459Z,15.10
2022-09-18T12:53:28.927Z,15.10
2022-09-18T12:56:10.601Z,15.20
2022-09-18T12:59:01.483Z,15.20
2022-09-18T13:01:34.655Z,15.20
2022-09-18T13:04:11.030Z,15.10
2022-09-18T13:06:46.234Z,15.00
2022-09-18T13:09:25.649Z,14.60
2022-09-18T13:11:58.666Z,14.40
2022-09-18T13:14:31.921Z,14.20
2022-09-18T13:17:07.335Z,14.10
2022-09-18T13:19:39.831Z,14.00
2022-09-18T13:22:14.208Z,13.90
2022-09-18T13:24:43.614Z,13.90
2022-09-18T13:27:15.808Z,13.90
2022-09-18T13:30:00.045Z,14.00
2022-09-18T13:32:41.834Z,14.00
2022-09-18T13:35:21.112Z,14.10
2022-09-18T13:37:50.226Z,14.10
2022-09-18T13:40:35.442Z,14.10
2022-09-18T13:43:40.177Z,14.30
2022-09-18T13:46:28.946Z,14.20
2022-09-18T13:48:57.482Z,14.20
2022-09-18T13:51:31.102Z,14.20
2022-09-18T13:54:28.105Z,14.20
2022-09-18T13:57:19.898Z,14.30
2022-09-18T13:59:53.970Z,14.30
2022-09-18T14:02:29.850Z,14.30
2022-09-18T14:05:21.506Z,14.30
2022-09-18T14:07:54.477Z,14.30
2022-09-18T14:10:29.795Z,14.40
2022-09-18T14:13:29.674Z,14.40
2022-09-18T14:16:01.520Z,14.40
2022-09-18T14:18:34.169Z,14.40
2022-09-18T14:21:16.015Z,14.40
2022-09-18T14:24:06.939Z,14.40
2022-09-18T14:27:23.444Z,14.40
2022-09-18T14:29:57.344Z,14.40
2022-09-18T14:32:27.698Z,14.40
2022-09-18T14:35:27.288Z,14.30
2022-09-18T14:37:55.290Z,14.30
2022-09-18T14:40:25.488Z,14.20
2022-09-18T14:42:53.550Z,14.10
2022-09-18T14:45:31.938Z,14.10
2022-09-18T14:48:00.173Z,14.00
2022-09-18T14:50:33.730Z,14.00
2022-09-18T14:53:03.807Z,13.90
2022-09-18T14:55:35.196Z,13.80
2022-09-18T14:58:07.182Z,13.70
2022-09-18T15:00:38.346Z,13.60
2022-09-18T15:03:09.897Z,13.80
2022-09-18T15:05:39.239Z,13.70
2022-09-18T15:08:15.766Z,13.70
2022-09-18T15:10:48.693Z,13.70
2022-09-18T15:13:18.499Z,13.80
2022-09-18T15:15:47.345Z,13.80
2022-09-18T15:18:20.412Z,13.80
2022-09-18T15:20:51.551Z,13.80
2022-09-18T15:23:21.142Z,13.80
2022-09-18T15:25:53.489Z,13.90
2022-09-18T15:28:24.034Z,13.90
2022-09-18T15:30:56.843Z,13.90
2022-09-18T15:33:27.394Z,13.90
2022-09-18T15:35:58.313Z,13.90
2022-09-18T15:38:32.019Z,13.90
2022-09-18T15:41:05.226Z,14.00
2022-09-18T15:43:43.739Z,13.90
2022-09-18T15:46:13.828Z,13.70
2022-09-18T15:48:44.320Z,13.70
2022-09-18T15:51:17.313Z,13.60
2022-09-18T15:54:05.345Z,13.70
2022-09-18T15:56:35.118Z,13.70
2022-09-18T15:59:05.905Z,13.60
2022-09-18T16:01:36.525Z,13.50
2022-09-18T16:04:08.891Z,13.60
2022-09-18T16:06:44.283Z,13.70
2022-09-18T16:09:25.420Z,13.30
2022-09-18T16:11:53.917Z,13.30
2022-09-18T16:15:01.662Z,13.20
2022-09-18T16:17:40.010Z,13.20
2022-09-18T16:20:30.012Z,12.90
2022-09-18T16:23:14.127Z,13.00
2022-09-18T16:25:43.611Z,12.80
2022-09-18T16:28:25.706Z,12.80
2022-09-18T16:30:53.912Z,12.80
2022-09-18T16:33:23.823Z,12.80
2022-09-18T16:35:57.107Z,12.90
2022-09-18T16:38:26.593Z,12.90
2022-09-18T16:40:54.793Z,12.90
2022-09-18T16:43:22.640Z,12.90
2022-09-18T16:45:51.325Z,13.00
2022-09-18T16:48:20.027Z,12.90
2022-09-18T16:50:48.681Z,13.00
2022-09-18T16:53:17.586Z,13.00
2022-09-18T16:55:49.827Z,12.90
2022-09-18T16:58:20.179Z,12.90
2022-09-18T17:00:48.775Z,12.90
2022-09-18T17:03:17.947Z,12.90
2022-09-18T17:05:48.023Z,13.00
2022-09-18T17:08:15.837Z,13.00
2022-09-18T17:10:45.257Z,12.80
2022-09-18T17:13:14.939Z,12.80
2022-09-18T17:15:42.911Z,12.80
2022-09-18T17:18:10.934Z,12.70
2022-09-18T17:20:39.293Z,12.60
2022-09-18T17:23:07.346Z,12.60
2022-09-18T17:25:35.300Z,12.60
2022-09-18T17:28:03.569Z,12.60
2022-09-18T17:30:33.387Z,12.60
2022-09-18T17:33:01.259Z,12.70
2022-09-18T17:35:29.802Z,12.70
2022-09-18T17:37:57.653Z,12.60
2022-09-18T17:40:25.569Z,12.70
2022-09-18T17:42:53.902Z,12.70
2022-09-18T17:45:21.736Z,12.60
2022-09-18T17:47:53.198Z,12.60
2022-09-18T17:50:22.251Z,12.70
2022-09-18T17:52:50.217Z,12.60
2022-09-18T17:55:18.618Z,12.60
2022-09-18T17:57:46.715Z,12.60
2022-09-18T18:00:15.739Z,12.60
2022-09-18T18:02:43.791Z,12.50
2022-09-18T18:05:13.325Z,12.50
2022-09-18T18:07:41.150Z,12.50
2022-09-18T18:10:09.887Z,12.50
2022-09-18T18:12:37.850Z,12.40
2022-09-18T18:15:06.550Z,12.40
2022-09-18T18:17:34.699Z,12.40
2022-09-18T18:20:03.400Z,12.40
2022-09-18T18:22:32.971Z,12.40
2022-09-18T18:25:01.485Z,12.40
2022-09-18T18:27:29.522Z,12.30
2022-09-18T18:29:57.504Z,12.30
2022-09-18T18:32:25.409Z,12.40
2022-09-18T18:34:55.487Z,12.30
2022-09-18T18:37:23.486Z,12.30
2022-09-18T18:39:52.871Z,12.30
2022-09-18T18:42:21.309Z,12.40
2022-09-18T18:44:49.538Z,12.30
2022-09-18T18:47:19.778Z,12.30
2022-09-18T18:49:47.828Z,12.30
2022-09-18T18:52:15.768Z,12.30
2022-09-18T18:54:43.601Z,12.30
2022-09-18T18:57:12.999Z,12.30
2022-09-18T18:59:41.119Z,12.30
2022-09-18T19:02:10.591Z,12.40
2022-09-18T19:04:40.430Z,12.30
2022-09-18T19:07:08.320Z,12.30
2022-09-18T19:09:36.170Z,12.20
2022-09-18T19:12:04.402Z,12.10
2022-09-18T19:14:36.218Z,12.10
2022-09-18T19:17:04.102Z,12.20
2022-09-18T19:19:32.008Z,12.20
2022-09-18T19:21:59.993Z,12.20
2022-09-18T19:24:28.465Z,12.20
2022-09-18T19:26:56.401Z,12.20
2022-09-18T19:29:24.366Z,12.20
2022-09-18T19:31:53.823Z,12.20
2022-09-18T19:34:23.810Z,12.20
2022-09-18T19:36:52.762Z,12.10
2022-09-18T19:39:23.929Z,12.00
2022-09-18T19:41:55.354Z,12.00
2022-09-18T19:44:31.197Z,12.00
2022-09-18T19:47:03.002Z,12.00
2022-09-18T19:49:34.297Z,12.00
2022-09-18T19:52:03.109Z,12.00
2022-09-18T19:54:31.163Z,12.00
2022-09-18T19:56:59.132Z,11.90
2022-09-18T19:59:27.299Z,11.90
2022-09-18T20:01:55.451Z,11.90
2022-09-18T20:04:24.772Z,11.90
2022-09-18T20:06:52.757Z,11.90
2022-09-18T20:09:21.024Z,11.90
2022-09-18T20:11:48.988Z,11.90
2022-09-18T20:14:17.075Z,11.90
2022-09-18T20:16:46.998Z,11.90
2022-09-18T20:19:14.952Z,11.90
2022-09-18T20:21:44.417Z,11.90
2022-09-18T20:24:12.894Z,11.90
2022-09-18T20:26:40.831Z,11.90
2022-09-18T20:29:12.005Z,11.80
2022-09-18T20:31:42.318Z,11.80
2022-09-18T20:34:11.801Z,11.70
2022-09-18T20:36:39.593Z,11.70
2022-09-18T20:39:09.923Z,11.70
2022-09-18T20:41:39.294Z,11.60
2022-09-18T20:44:07.219Z,11.60
2022-09-18T20:46:37.349Z,11.60
2022-09-18T20:49:06.392Z,11.70
2022-09-18T20:51:35.907Z,11.70
2022-09-18T20:54:06.869Z,11.70
2022-09-18T20:56:41.243Z,11.80
2022-09-18T20:59:10.266Z,11.80
2022-09-18T21:01:40.247Z,11.80
2022-09-18T21:04:08.954Z,11.70
2022-09-18T21:06:38.255Z,11.70
2022-09-18T21:09:08.215Z,11.70
2022-09-18T21:11:39.206Z,11.70
2022-09-18T21:14:09.348Z,11.70
2022-09-18T21:16:42.911Z,11.70
2022-09-18T21:19:12.851Z,11.70
2022-09-18T21:21:41.548Z,11.70
2022-09-18T21:24:10.169Z,11.70
2022-09-18T21:26:41.307Z,11.80
2022-09-18T21:29:13.318Z,11.80
2022-09-18T21:31:43.298Z,11.80
2022-09-18T21:34:12.733Z,11.70
2022-09-18T21:36:44.063Z,11.70
2022-09-18T21:39:13.191Z,11.70
2022-09-18T21:41:46.458Z,11.70
2022-09-18T21:44:15.871Z,11.70
2022-09-18T21:46:45.936Z,11.60
2022-09-18T21:49:16.001Z,11.60
2022-09-18T21:51:44.540Z,11.60
2022-09-18T21:54:15.956Z,11.60
2022-09-18T21:56:51.293Z,11.70
2022-09-18T21:59:19.831Z,11.60
2022-09-18T22:01:50.225Z,11.70
2022-09-18T22:04:18.517Z,11.70
2022-09-18T22:06:48.031Z,11.70
2022-09-18T22:09:18.043Z,11.70
2022-09-18T22:11:48.832Z,11.70
2022-09-18T22:14:18.820Z,11.60
2022-09-18T22:16:48.640Z,11.60
2022-09-18T22:19:17.675Z,11.60
2022-09-18T22:21:47.313Z,11.50
2022-09-18T22:24:18.928Z,11.50
2022-09-18T22:26:49.875Z,11.50
2022-09-18T22:29:20.755Z,11.50
2022-09-18T22:31:49.642Z,11.50
2022-09-18T22:34:20.825Z,11.50
2022-09-18T22:36:50.126Z,11.50
2022-09-18T22:39:20.961Z,11.50
2022-09-18T22:41:51.443Z,11.50
2022-09-18T22:44:21.341Z,11.50
2022-09-18T22:46:52.011Z,11.50
2022-09-18T22:49:22.092Z,11.50
2022-09-18T22:51:50.982Z,11.60
2022-09-18T22:54:23.751Z,11.60
2022-09-18T22:56:54.005Z,11.70
2022-09-18T22:59:23.958Z,11.70
2022-09-18T23:01:53.850Z,11.70
2022-09-18T23:04:23.518Z,11.70
2022-09-18T23:06:51.790Z,11.70
2022-09-18T23:09:20.890Z,11.70
2022-09-18T23:11:52.045Z,11.70
2022-09-18T23:14:22.986Z,11.60
2022-09-18T23:16:51.683Z,11.60
2022-09-18T23:19:22.413Z,11.50
2022-09-18T23:21:51.390Z,11.50
2022-09-18T23:24:19.837Z,11.50
2022-09-18T23:26:49.871Z,11.50
2022-09-18T23:29:20.796Z,11.50
2022-09-18T23:31:52.920Z,11.60
2022-09-18T23:34:24.194Z,11.60
2022-09-18T23:36:56.072Z,11.60
2022-09-18T23:39:27.014Z,11.60
2022-09-18T23:41:55.416Z,11.60
2022-09-18T23:44:24.540Z,11.60
2022-09-18T23:46:53.991Z,11.60
2022-09-18T23:49:23.076Z,11.60
2022-09-18T23:51:52.784Z,11.60
2022-09-18T23:54:22.717Z,11.60
2022-09-18T23:56:51.538Z,11.60
2022-09-18T23:59:22.997Z,11.50
